Foz de Iguazu, Brazil
Current Conditions -  °F | °C
As of 7:00 PM on Wednesday 17 Dec 2014 (Local Time) from SARI Reporting Station
Overcast Overcast  
Wind Chill: 70°   Ceiling: 10000
Heat Index: 70°   Visibility: 6mi
Dew Point: 70°   Wind: 7mph
Humidity: 100%   Direction: 50°NE
Pressure: 29.83"   Gusts: NA
Location:  25.69°S, 54.43°W
Report Text: SARI 172100Z 05006KT 9999 FEW030 OVC10021/21 Q1010
Loading
Personal Weather Stations






























Interactive Weather Map New forecast layout! Learn more

10-Day Weather Forecast

Advertisements
Track Severe Weather on mobile